Time;durP1;ratioP1;P1;durP2;ratioP2;P2;SDS_P1;SDS_P2;PMS_P1;PMS_P2;Temp;Humidity;BMP_temperature;BMP_pressure;BME280_temperature;BME280_humidity;BME280_pressure;Samples;Min_cycle;Max_cycle;Signal;HPM_P1;HPM_P2
2022/12/14 00:01:21;;;;;;;23.83;9.07;;;;;;;-2.33;70.09;98793.09;4955799;28;20081;-84
2022/12/14 00:03:48;;;;;;;28.85;10.10;;;;;;;-2.30;70.38;98792.06;4948536;28;20130;-84
2022/12/14 00:06:17;;;;;;;23.10;10.07;;;;;;;-2.30;70.17;98784.28;4970168;28;20121;-85
2022/12/14 00:08:46;;;;;;;33.70;10.57;;;;;;;-2.34;70.07;98780.16;4970428;28;20457;-85
2022/12/14 00:11:13;;;;;;;30.63;10.13;;;;;;;-2.42;70.21;98786.63;4964062;28;20110;-85
2022/12/14 00:13:40;;;;;;;29.55;9.98;;;;;;;-2.35;70.41;98775.88;4951692;28;20065;-84
2022/12/14 00:16:10;;;;;;;26.30;10.43;;;;;;;-2.33;70.76;98777.47;4977407;28;20055;-85
2022/12/14 00:18:38;;;;;;;26.15;9.75;;;;;;;-2.35;70.81;98788.88;4961694;28;20574;-85
2022/12/14 00:21:12;;;;;;;23.33;9.38;;;;;;;-2.35;70.52;98783.69;4986124;28;20125;-85
2022/12/14 00:23:40;;;;;;;21.50;9.55;;;;;;;-2.38;70.16;98776.88;4969342;28;20042;-84
2022/12/14 00:26:15;;;;;;;29.90;10.88;;;;;;;-2.35;69.96;98765.47;4955362;28;20129;-85
2022/12/14 00:28:43;;;;;;;26.08;9.70;;;;;;;-2.36;70.27;98775.06;4982578;28;20042;-84
2022/12/14 00:31:10;;;;;;;29.15;9.35;;;;;;;-2.37;70.23;98760.34;4981300;28;20074;-84
2022/12/14 00:33:37;;;;;;;29.02;10.10;;;;;;;-2.35;70.09;98755.09;4952800;28;20054;-86
2022/12/14 00:36:05;;;;;;;23.00;9.50;;;;;;;-2.36;70.71;98763.81;4934541;28;20062;-85
2022/12/14 00:38:32;;;;;;;25.77;9.48;;;;;;;-2.35;70.37;98768.09;4945595;28;20065;-84
2022/12/14 00:40:59;;;;;;;27.08;10.18;;;;;;;-2.36;70.68;98764.66;4987904;28;20723;-84
2022/12/14 00:43:26;;;;;;;25.05;10.35;;;;;;;-2.36;70.42;98753.41;4972821;28;20483;-84
2022/12/14 00:45:53;;;;;;;31.60;11.15;;;;;;;-2.37;70.33;98744.75;4949548;28;20133;-84
2022/12/14 00:48:21;;;;;;;24.30;9.68;;;;;;;-2.37;70.27;98741.31;4967843;28;20462;-84
2022/12/14 00:50:49;;;;;;;27.33;10.10;;;;;;;-2.34;70.50;98738.56;4949962;28;20677;-84
2022/12/14 00:53:16;;;;;;;23.27;9.30;;;;;;;-2.33;70.28;98742.84;4969522;28;20048;-84
2022/12/14 00:55:44;;;;;;;26.60;11.07;;;;;;;-2.36;70.25;98741.25;4988585;28;20038;-84
2022/12/14 00:58:18;;;;;;;28.83;11.70;;;;;;;-2.32;70.52;98749.72;4948582;28;20115;-84
2022/12/14 01:00:46;;;;;;;27.63;9.80;;;;;;;-2.27;70.32;98747.72;5000696;28;20510;-84
2022/12/14 01:03:13;;;;;;;29.00;10.50;;;;;;;-2.22;70.24;98743.94;4962314;28;20046;-84
2022/12/14 01:05:39;;;;;;;25.20;9.70;;;;;;;-2.25;70.54;98730.28;4969263;28;20705;-84
2022/12/14 01:08:07;;;;;;;25.45;10.45;;;;;;;-2.24;70.34;98742.34;4960842;28;20046;-84
2022/12/14 01:10:37;;;;;;;22.40;10.00;;;;;;;-2.23;70.42;98738.84;4964762;28;20047;-84
2022/12/14 01:13:05;;;;;;;29.55;11.48;;;;;;;-2.24;70.60;98737.13;4936282;28;20140;-84
2022/12/14 01:15:33;;;;;;;26.85;10.23;;;;;;;-2.19;70.51;98730.78;4918742;28;20050;-85
2022/12/14 01:18:00;;;;;;;26.88;10.05;;;;;;;-2.17;70.74;98738.50;4946367;28;20109;-84
2022/12/14 01:20:27;;;;;;;25.60;9.45;;;;;;;-2.15;70.54;98741.84;4951356;28;20050;-84
2022/12/14 01:22:57;;;;;;;26.17;9.45;;;;;;;-2.11;70.08;98745.13;4918424;28;20726;-84
2022/12/14 01:25:24;;;;;;;25.25;10.10;;;;;;;-2.13;70.29;98736.59;4935530;28;20073;-85
2022/12/14 01:27:51;;;;;;;23.45;10.70;;;;;;;-2.18;69.81;98726.44;4934378;28;20122;-84
2022/12/14 01:30:18;;;;;;;28.92;10.45;;;;;;;-2.20;70.16;98731.69;4968727;28;20085;-85
2022/12/14 01:32:45;;;;;;;31.20;12.02;;;;;;;-2.18;70.29;98734.22;4978407;28;20101;-84
2022/12/14 01:35:12;;;;;;;28.92;11.32;;;;;;;-2.17;70.18;98732.47;4933791;28;20564;-84
2022/12/14 01:37:39;;;;;;;31.15;11.63;;;;;;;-2.20;70.25;98742.09;4958667;28;20054;-84
2022/12/14 01:40:06;;;;;;;30.65;10.80;;;;;;;-2.21;70.68;98735.22;4948344;28;20056;-85
2022/12/14 01:42:37;;;;;;;31.23;10.90;;;;;;;-2.19;70.46;98729.94;4916701;28;20049;-84
2022/12/14 01:45:04;;;;;;;30.95;12.02;;;;;;;-2.22;70.28;98730.09;4937627;28;20050;-85
2022/12/14 01:47:41;;;;;;;28.02;9.95;;;;;;;-2.24;70.30;98732.81;4948579;28;20062;-84
2022/12/14 01:50:12;;;;;;;28.80;10.77;;;;;;;-2.27;70.48;98732.09;4931737;28;20047;-84
2022/12/14 01:52:41;;;;;;;30.88;11.63;;;;;;;-2.29;70.30;98728.75;4959180;28;20039;-84
2022/12/14 01:55:14;;;;;;;29.58;11.60;;;;;;;-2.24;70.40;98719.81;4963890;28;20054;-85
2022/12/14 01:58:17;;;;;;;27.42;11.73;;;;;;;-2.25;70.35;98706.88;4980843;28;20125;-84
2022/12/14 02:00:44;;;;;;;26.80;10.93;;;;;;;-2.19;70.59;98709.13;4922883;28;20068;-84
2022/12/14 02:03:32;;;;;;;28.92;11.93;;;;;;;-2.17;70.66;98689.09;4982228;28;20081;-85
2022/12/14 02:06:03;;;;;;;25.90;9.98;;;;;;;-2.17;70.78;98696.88;4963463;28;20046;-86
2022/12/14 02:08:30;;;;;;;28.83;11.00;;;;;;;-2.15;70.78;98687.25;4983643;28;20070;-84
2022/12/14 02:10:57;;;;;;;29.25;11.88;;;;;;;-2.17;70.85;98683.03;4983571;28;20125;-84
2022/12/14 02:13:26;;;;;;;24.80;10.25;;;;;;;-2.19;70.69;98676.19;4966137;28;20070;-84
2022/12/14 02:15:54;;;;;;;27.17;11.10;;;;;;;-2.13;70.80;98676.78;4979174;28;20583;-84
2022/12/14 02:18:23;;;;;;;28.30;10.77;;;;;;;-2.11;70.98;98674.91;4980803;28;20058;-85
2022/12/14 02:21:07;;;;;;;28.27;10.82;;;;;;;-2.16;70.85;98671.72;4968535;28;20041;-85
2022/12/14 02:24:05;;;;;;;31.33;11.18;;;;;;;-2.11;71.19;98680.09;4994137;28;22045;-85
2022/12/14 02:26:42;;;;;;;26.38;10.60;;;;;;;-2.07;71.53;98672.03;4929264;28;20086;-84
2022/12/14 02:29:27;;;;;;;28.58;11.63;;;;;;;-2.06;71.65;98665.94;4986467;28;20060;-85
2022/12/14 02:31:59;;;;;;;27.13;11.70;;;;;;;-2.02;71.36;98661.38;4892313;28;20141;-85
2022/12/14 02:34:42;;;;;;;24.70;10.10;;;;;;;-2.03;70.92;98657.97;4970322;28;20053;-84
2022/12/14 02:37:22;;;;;;;26.40;10.85;;;;;;;-1.99;71.23;98662.03;4992622;28;20379;-84
2022/12/14 02:40:33;;;;;;;28.27;11.20;;;;;;;-1.99;71.00;98651.63;4941563;28;20045;-84
2022/12/14 02:43:12;;;;;;;27.88;11.02;;;;;;;-1.97;70.92;98644.59;4930931;28;20120;-84
2022/12/14 02:45:41;;;;;;;32.05;11.82;;;;;;;-1.94;71.22;98651.38;4937509;28;20510;-84
2022/12/14 02:48:16;;;;;;;28.45;10.55;;;;;;;-1.90;71.03;98657.28;4969646;28;20050;-84
2022/12/14 02:51:02;;;;;;;31.02;11.70;;;;;;;-1.91;71.12;98655.56;4953976;28;20046;-85
2022/12/14 02:53:48;;;;;;;29.23;11.70;;;;;;;-1.91;70.66;98651.22;4939851;28;20375;-84
2022/12/14 02:56:18;;;;;;;30.42;12.20;;;;;;;-1.89;70.93;98643.34;4940585;28;20053;-85
2022/12/14 02:58:49;;;;;;;31.23;11.93;;;;;;;-1.89;70.91;98640.72;4987665;28;20136;-86
2022/12/14 03:01:21;;;;;;;33.05;12.85;;;;;;;-1.91;70.58;98635.59;4954837;28;22056;-84
2022/12/14 03:03:47;;;;;;;33.25;12.35;;;;;;;-1.91;70.86;98637.38;4986862;28;20405;-85
2022/12/14 03:06:26;;;;;;;30.92;12.93;;;;;;;-1.90;70.80;98632.09;4971760;28;20057;-84
2022/12/14 03:08:57;;;;;;;32.75;13.48;;;;;;;-1.88;71.19;98635.44;4929415;28;20046;-84
2022/12/14 03:11:30;;;;;;;33.35;12.80;;;;;;;-1.92;71.33;98622.69;4967108;28;20069;-85
2022/12/14 03:14:02;;;;;;;31.35;11.88;;;;;;;-1.91;71.43;98624.34;4965637;28;20093;-86
2022/12/14 03:16:55;;;;;;;27.65;11.75;;;;;;;-1.94;71.70;98620.16;4958484;28;20057;-84
2022/12/14 03:19:29;;;;;;;;;;;;;;;-1.95;71.95;98625.47;4914201;28;20923;-84
2022/12/14 03:22:00;;;;;;;;;;;;;;;-1.92;72.06;98618.31;4949080;28;19922;-84
2022/12/14 03:24:51;;;;;;;34.42;13.80;;;;;;;-1.87;71.77;98616.28;4965991;28;20392;-84
2022/12/14 03:27:19;;;;;;;28.92;11.38;;;;;;;-1.82;71.80;98616.03;4929073;28;20043;-86
2022/12/14 03:29:54;;;;;;;36.47;13.40;;;;;;;-1.80;72.00;98611.59;4948382;28;20073;-84
2022/12/14 03:32:23;;;;;;;33.45;12.32;;;;;;;-1.76;71.94;98607.88;4947736;28;20043;-85
2022/12/14 03:34:58;;;;;;;30.25;12.35;;;;;;;-1.77;72.51;98614.00;4982289;28;20050;-84
2022/12/14 03:37:32;;;;;;;30.70;11.77;;;;;;;-1.75;72.24;98604.34;4982276;28;20661;-84
2022/12/14 03:39:59;;;;;;;34.20;12.85;;;;;;;-1.72;72.40;98600.75;4945006;28;20050;-84
2022/12/14 03:42:37;;;;;;;42.35;15.32;;;;;;;-1.71;72.59;98611.03;4953100;28;20105;-84
2022/12/14 03:45:15;;;;;;;39.55;15.05;;;;;;;-1.72;73.30;98608.56;4997937;28;20081;-84
2022/12/14 03:47:52;;;;;;;36.22;14.45;;;;;;;-1.72;73.60;98596.38;4945656;28;20559;-84
2022/12/14 03:50:24;;;;;;;38.03;15.25;;;;;;;-1.69;73.24;98584.94;4991351;28;20909;-84
2022/12/14 03:53:05;;;;;;;40.55;15.02;;;;;;;-1.73;74.44;98579.09;4949226;28;20130;-84
2022/12/14 03:55:53;;;;;;;38.35;15.90;;;;;;;-1.72;73.77;98567.75;4946147;28;20125;-85
2022/12/14 03:58:32;;;;;;;39.35;15.20;;;;;;;-1.73;74.25;98579.09;4994436;28;20057;-84
2022/12/14 04:01:24;;;;;;;44.55;15.98;;;;;;;-1.73;74.51;98567.81;4954039;28;20533;-84
2022/12/14 04:04:13;;;;;;;46.33;16.75;;;;;;;-1.78;75.06;98571.53;4991002;28;20065;-84
2022/12/14 04:06:46;;;;;;;39.47;16.73;;;;;;;-1.79;74.63;98575.06;4906150;28;20137;-84
2022/12/14 04:09:22;;;;;;;40.70;17.10;;;;;;;-1.78;74.46;98574.16;4963393;28;20505;-84
2022/12/14 04:20:30;;;;;;;51.90;18.15;;;;;;;-1.82;75.01;98556.19;4941675;28;20540;-84
2022/12/14 04:23:08;;;;;;;46.92;17.25;;;;;;;-1.80;74.77;98559.56;4926662;28;20066;-84
2022/12/14 04:31:16;;;;;;;41.45;16.92;;;;;;;-1.79;75.16;98551.63;4908550;28;20049;-84
2022/12/14 04:33:45;;;;;;;;;;;;;;;-1.81;75.67;98553.47;4908326;28;20141;-84
2022/12/14 04:36:24;;;;;;;46.05;18.27;;;;;;;-1.88;76.37;98543.53;4943688;28;20336;-84
2022/12/14 04:38:55;;;;;;;50.38;18.75;;;;;;;-1.90;76.09;98548.84;4989029;28;20473;-84
2022/12/14 04:41:27;;;;;;;45.85;17.70;;;;;;;-1.86;75.60;98531.28;4965178;28;20079;-85
2022/12/14 04:43:54;;;;;;;52.67;19.67;;;;;;;-1.83;75.61;98525.88;4975554;28;20057;-84
2022/12/14 04:46:25;;;;;;;54.60;20.88;;;;;;;-1.84;75.92;98522.44;4959055;28;20038;-84
2022/12/14 04:49:08;;;;;;;60.38;22.92;;;;;;;-1.90;77.14;98516.78;4954419;28;20052;-84
2022/12/14 04:51:44;;;;;;;56.33;21.90;;;;;;;-1.90;76.83;98517.63;4980625;28;20508;-83
2022/12/14 04:54:18;;;;;;;52.58;20.25;;;;;;;-1.91;77.18;98512.50;4952442;28;20125;-85
2022/12/14 04:56:55;;;;;;;55.08;21.00;;;;;;;-1.90;77.17;98514.19;4968761;28;20046;-84
2022/12/14 04:59:23;;;;;;;49.95;20.98;;;;;;;-1.86;76.93;98523.47;4980292;28;20072;-83
2022/12/14 05:02:03;;;;;;;54.03;20.08;;;;;;;-1.86;77.33;98531.28;4948783;28;20101;-84
2022/12/14 05:04:53;;;;;;;48.58;20.20;;;;;;;-1.85;77.09;98522.56;4943125;28;20050;-84
2022/12/14 05:07:33;;;;;;;52.15;20.48;;;;;;;-1.83;76.60;98516.34;4936795;28;20066;-83
2022/12/14 05:10:11;;;;;;;54.55;18.60;;;;;;;-1.80;76.95;98508.34;4915301;28;20050;-83
2022/12/14 05:12:39;;;;;;;56.42;20.00;;;;;;;-1.76;76.31;98514.19;4942144;28;20050;-83
2022/12/14 05:15:09;;;;;;;58.53;20.52;;;;;;;-1.75;76.30;98521.09;4977510;28;20125;-84
2022/12/14 05:17:36;;;;;;;58.13;21.15;;;;;;;-1.76;76.53;98525.44;5002070;28;20042;-84
2022/12/14 05:20:04;;;;;;;56.45;21.73;;;;;;;-1.75;76.39;98526.28;5001051;28;20050;-84
2022/12/14 05:22:30;;;;;;;63.25;22.60;;;;;;;-1.76;76.42;98527.19;5005031;28;20048;-83
2022/12/14 05:24:57;;;;;;;64.22;22.75;;;;;;;-1.72;76.38;98517.47;4969911;28;20052;-84
2022/12/14 05:27:23;;;;;;;60.15;22.27;;;;;;;-1.73;76.33;98519.25;4967499;28;20520;-85
2022/12/14 05:29:50;;;;;;;65.00;22.77;;;;;;;-1.73;76.62;98518.38;4988062;28;20046;-85
2022/12/14 05:32:17;;;;;;;67.50;22.42;;;;;;;-1.73;76.95;98514.03;4960671;28;20192;-85
2022/12/14 05:34:44;;;;;;;61.60;22.48;;;;;;;-1.73;76.49;98505.38;4954969;28;20053;-85
2022/12/14 05:37:11;;;;;;;57.03;21.42;;;;;;;-1.73;77.40;98507.97;4988207;28;20045;-85
2022/12/14 05:39:44;;;;;;;59.20;21.02;;;;;;;-1.75;77.22;98511.50;4948957;28;20042;-85
2022/12/14 05:42:10;;;;;;;58.35;22.80;;;;;;;-1.74;77.08;98501.94;4988779;28;20468;-84
2022/12/14 05:44:37;;;;;;;54.92;20.75;;;;;;;-1.76;77.12;98499.41;4968384;28;20050;-85
2022/12/14 05:47:04;;;;;;;63.47;23.45;;;;;;;-1.76;76.97;98486.41;4990833;28;20390;-84
2022/12/14 05:49:30;;;;;;;52.85;21.08;;;;;;;-1.75;77.14;98493.28;4969227;28;20042;-85
2022/12/14 05:51:57;;;;;;;70.03;23.10;;;;;;;-1.80;77.32;98481.50;4967391;28;20462;-85
2022/12/14 05:54:23;;;;;;;65.97;23.17;;;;;;;-1.76;77.29;98481.19;4945731;28;20073;-85
2022/12/14 05:56:50;;;;;;;69.80;22.10;;;;;;;-1.87;78.97;98474.97;4943082;28;20055;-85
2022/12/14 05:59:17;;;;;;;63.53;22.98;;;;;;;-1.82;77.32;98471.16;4979509;28;20372;-84
2022/12/14 06:01:44;;;;;;;69.60;23.35;;;;;;;-1.80;77.67;98478.88;4961537;28;20474;-85
2022/12/14 06:04:15;;;;;;;68.07;23.42;;;;;;;-1.74;77.26;98475.91;4973530;28;20072;-84
2022/12/14 06:06:42;;;;;;;64.40;22.55;;;;;;;-1.72;77.56;98476.66;4982937;28;20046;-85
2022/12/14 06:09:10;;;;;;;68.28;24.27;;;;;;;-1.71;76.96;98467.91;4973392;28;20050;-85
2022/12/14 06:11:38;;;;;;;69.45;25.60;;;;;;;-1.70;77.23;98453.16;4985905;28;20497;-84
2022/12/14 06:14:06;;;;;;;68.90;25.02;;;;;;;-1.72;77.60;98442.00;4986604;28;20104;-85
2022/12/14 06:16:33;;;;;;;60.97;24.20;;;;;;;-1.72;77.22;98442.84;4969702;28;20522;-85
2022/12/14 06:19:02;;;;;;;65.47;22.55;;;;;;;-1.75;76.99;98437.81;4969182;28;20046;-84
2022/12/14 06:21:34;;;;;;;66.47;25.77;;;;;;;-1.75;77.68;98437.81;4946724;28;20038;-85
2022/12/14 06:24:02;;;;;;;69.28;26.00;;;;;;;-1.76;78.51;98442.16;4928529;28;20532;-85
2022/12/14 06:26:30;;;;;;;76.00;25.52;;;;;;;-1.72;77.53;98445.44;4961704;28;20050;-84
2022/12/14 06:28:57;;;;;;;64.57;24.50;;;;;;;-1.71;77.48;98446.25;4964532;28;20131;-85
2022/12/14 06:31:26;;;;;;;72.47;25.58;;;;;;;-1.70;77.37;98440.16;4957031;28;20050;-84
2022/12/14 06:33:53;;;;;;;65.82;25.63;;;;;;;-1.75;78.30;98440.41;4951902;28;20062;-93
2022/12/14 06:36:25;;;;;;;60.00;24.15;;;;;;;-1.78;78.37;98436.25;4950855;28;20074;-92
2022/12/14 06:38:53;;;;;;;69.07;24.70;;;;;;;-1.73;77.49;98435.09;4946073;28;20069;-90
2022/12/14 06:41:21;;;;;;;79.82;25.65;;;;;;;-1.73;77.23;98430.75;4970938;28;20095;-93
2022/12/14 06:43:48;;;;;;;72.95;26.55;;;;;;;-1.71;77.35;98422.84;4972954;28;20050;-93
2022/12/14 06:46:17;;;;;;;74.43;26.30;;;;;;;-1.74;78.03;98426.47;4996747;28;20050;-94
2022/12/14 06:48:52;;;;;;;71.70;25.60;;;;;;;-1.71;77.63;98428.88;4942604;28;20548;-90
2022/12/14 06:51:20;;;;;;;70.93;24.63;;;;;;;-1.70;77.91;98422.75;4985478;28;20070;-92
2022/12/14 06:53:50;;;;;;;64.50;24.88;;;;;;;-1.69;77.71;98431.41;4987639;28;20101;-93
2022/12/14 06:56:18;;;;;;;69.57;24.70;;;;;;;-1.71;77.97;98428.03;4972759;28;20046;-93
2022/12/14 06:58:45;;;;;;;67.70;24.00;;;;;;;-1.69;77.18;98416.63;4957220;28;20046;-94
2022/12/14 07:01:14;;;;;;;73.53;25.20;;;;;;;-1.67;77.07;98412.16;4970740;28;20128;-93
2022/12/14 07:03:42;;;;;;;70.05;24.67;;;;;;;-1.63;76.53;98413.66;4953456;28;20050;-93
2022/12/14 07:06:09;;;;;;;71.80;25.85;;;;;;;-1.65;76.79;98407.69;4971435;28;20039;-93
2022/12/14 07:08:37;;;;;;;68.97;24.65;;;;;;;-1.64;76.98;98408.53;4991051;28;22555;-93
2022/12/14 07:11:09;;;;;;;70.82;24.75;;;;;;;-1.63;76.92;98405.84;4937056;28;20089;-93
2022/12/14 07:13:36;;;;;;;66.90;24.05;;;;;;;-1.61;77.09;98401.34;4920762;28;20066;-93
2022/12/14 07:16:04;;;;;;;71.82;26.35;;;;;;;-1.58;76.87;98405.53;4954788;28;20094;-94
2022/12/14 07:18:31;;;;;;;66.82;23.55;;;;;;;-1.57;76.92;98396.81;4971469;28;20039;-93
2022/12/14 07:21:01;;;;;;;57.58;22.13;;;;;;;-1.58;76.92;98388.19;4974626;28;20042;-91
2022/12/14 07:23:30;;;;;;;67.22;25.98;;;;;;;-1.54;76.81;98383.59;4961590;28;20461;-90
2022/12/14 07:26:02;;;;;;;71.82;24.67;;;;;;;-1.59;76.72;98377.84;4959334;28;20129;-94
2022/12/14 07:28:29;;;;;;;71.03;24.00;;;;;;;-1.56;76.47;98368.06;4955782;28;20073;-90
2022/12/14 07:30:57;;;;;;;72.30;24.05;;;;;;;-1.57;76.35;98368.19;4972708;28;20494;-92
2022/12/14 07:33:25;;;;;;;67.85;24.45;;;;;;;-1.61;76.83;98380.53;4970591;28;20038;-93
2022/12/14 07:36:03;;;;;;;67.50;24.73;;;;;;;-1.65;76.78;98373.88;4943943;28;20051;-93
2022/12/14 07:38:31;;;;;;;67.78;23.67;;;;;;;-1.63;76.77;98368.53;4985438;28;20134;-93
2022/12/14 07:41:05;;;;;;;63.53;23.98;;;;;;;-1.65;77.00;98370.44;4975153;28;20042;-93
2022/12/14 07:43:32;;;;;;;67.47;22.98;;;;;;;-1.62;76.86;98358.06;4967031;28;20494;-93
2022/12/14 07:46:03;;;;;;;64.10;23.08;;;;;;;-1.59;77.14;98365.66;4968926;28;20050;-93
2022/12/14 07:48:31;;;;;;;70.65;23.85;;;;;;;-1.55;77.05;98368.94;4943303;28;20053;-92
2022/12/14 07:51:06;;;;;;;67.63;24.52;;;;;;;-1.55;76.83;98369.75;4973651;28;20410;-93
2022/12/14 07:53:34;;;;;;;61.30;21.52;;;;;;;-1.49;76.69;98367.69;4981702;28;20141;-93
2022/12/14 07:56:03;;;;;;;57.90;22.25;;;;;;;-1.55;76.97;98356.75;4956540;28;20059;-92
2022/12/14 07:58:31;;;;;;;68.10;23.83;;;;;;;-1.54;76.69;98349.75;4952193;28;20038;-93
2022/12/14 08:01:15;;;;;;;63.58;24.27;;;;;;;-1.56;76.65;98346.41;4951222;28;20576;-92
2022/12/14 08:03:47;;;;;;;69.95;23.65;;;;;;;-1.61;76.42;98357.09;4942160;28;20054;-92
2022/12/14 08:06:15;;;;;;;61.08;21.73;;;;;;;-1.59;76.15;98352.66;4945111;28;20065;-91
2022/12/14 08:08:43;;;;;;;69.18;23.58;;;;;;;-1.61;76.60;98358.88;4966259;28;20157;-93
2022/12/14 08:11:12;;;;;;;60.53;23.25;;;;;;;-1.60;76.47;98350.16;4950091;28;20096;-92
2022/12/14 08:13:41;;;;;;;65.50;23.98;;;;;;;-1.60;76.74;98358.81;4975446;28;20050;-92
2022/12/14 08:16:11;;;;;;;71.93;24.13;;;;;;;-1.63;76.98;98365.94;4976293;28;20057;-93
2022/12/14 08:18:38;;;;;;;63.70;22.77;;;;;;;-1.61;76.72;98372.72;4957266;28;20038;-91
2022/12/14 08:21:06;;;;;;;70.85;24.67;;;;;;;-1.62;77.05;98363.25;4940151;28;20588;-93
2022/12/14 08:23:34;;;;;;;66.40;24.67;;;;;;;-1.61;76.95;98361.47;4974018;28;20141;-92
2022/12/14 08:26:02;;;;;;;63.35;22.92;;;;;;;-1.58;77.21;98367.34;4981197;28;20050;-92
2022/12/14 08:28:30;;;;;;;65.40;23.58;;;;;;;-1.57;77.05;98366.41;4966859;28;20471;-92
2022/12/14 08:31:02;;;;;;;60.28;22.83;;;;;;;-1.56;77.08;98354.22;4941682;28;20435;-92
2022/12/14 08:33:29;;;;;;;67.57;23.55;;;;;;;-1.57;77.23;98349.97;4936589;28;20098;-92
2022/12/14 08:36:03;;;;;;;62.45;22.88;;;;;;;-1.60;77.59;98355.38;4936657;28;20132;-93
2022/12/14 08:38:30;;;;;;;64.53;23.75;;;;;;;-1.57;77.85;98362.97;4946658;28;20082;-91
2022/12/14 08:41:01;;;;;;;77.85;24.52;;;;;;;-1.60;78.21;98377.03;4984807;28;20061;-93
2022/12/14 08:43:28;;;;;;;65.43;23.95;;;;;;;-1.57;77.79;98386.41;4971707;28;20081;-93
2022/12/14 08:45:55;;;;;;;63.38;24.80;;;;;;;-1.56;77.86;98378.47;4975446;28;20038;-92
2022/12/14 08:48:23;;;;;;;71.45;25.55;;;;;;;-1.54;77.98;98379.22;4939086;28;20512;-93
2022/12/14 08:50:50;;;;;;;66.80;23.92;;;;;;;-1.54;78.63;98374.03;4991136;28;20054;-91
2022/12/14 08:53:17;;;;;;;91.53;26.15;;;;;;;-1.54;78.69;98371.41;4959778;28;20053;-92
2022/12/14 08:55:44;;;;;;;66.85;24.38;;;;;;;-1.60;81.51;98373.59;4971424;28;20053;-92
2022/12/14 08:58:11;;;;;;;82.13;26.23;;;;;;;-1.61;81.00;98364.91;4960716;28;20049;-92
2022/12/14 09:00:38;;;;;;;72.70;24.67;;;;;;;-1.65;81.84;98352.22;4957745;28;20046;-92
2022/12/14 09:03:05;;;;;;;94.07;29.17;;;;;;;-1.66;83.27;98348.75;4958843;28;20116;-91
2022/12/14 09:05:36;;;;;;;84.40;28.63;;;;;;;-1.67;84.03;98343.66;4936784;28;20045;-93
2022/12/14 09:08:03;;;;;;;77.15;28.10;;;;;;;-1.66;84.00;98340.94;4958394;28;20112;-91
2022/12/14 09:10:29;;;;;;;83.53;27.27;;;;;;;-1.68;84.99;98328.97;4989751;28;20043;-92
2022/12/14 09:12:57;;;;;;;81.13;29.13;;;;;;;-1.70;85.09;98330.84;4960144;28;20068;-93
2022/12/14 09:15:24;;;;;;;86.35;27.70;;;;;;;-1.66;84.68;98330.53;4965419;28;20105;-93
2022/12/14 09:17:51;;;;;;;85.90;28.30;;;;;;;-1.71;86.08;98332.59;4943081;28;21188;-93
2022/12/14 09:20:18;;;;;;;84.88;30.05;;;;;;;-1.69;86.29;98332.50;4958953;28;20108;-92
2022/12/14 09:22:44;;;;;;;78.35;28.05;;;;;;;-1.71;86.10;98350.81;4940567;28;20409;-92
2022/12/14 09:25:11;;;;;;;79.28;28.65;;;;;;;-1.74;86.77;98353.59;4923777;28;20077;-93
2022/12/14 09:27:38;;;;;;;84.63;28.27;;;;;;;-1.76;86.35;98343.28;4936772;28;20049;-92
2022/12/14 09:30:05;;;;;;;80.13;27.55;;;;;;;-1.78;86.86;98344.31;4985887;28;20046;-92
2022/12/14 09:32:32;;;;;;;73.15;26.90;;;;;;;-1.73;85.29;98339.69;4957298;28;20462;-93
2022/12/14 09:34:58;;;;;;;81.57;26.95;;;;;;;-1.72;86.14;98335.31;4953050;28;20081;-92
2022/12/14 09:37:25;;;;;;;91.05;28.23;;;;;;;-1.67;85.44;98335.84;4978834;28;20402;-92
2022/12/14 09:39:52;;;;;;;79.25;26.23;;;;;;;-1.67;85.73;98336.69;4973436;28;20129;-92
2022/12/14 09:42:46;;;;;;;69.10;25.58;;;;;;;-1.68;86.10;98335.03;4935182;28;20510;-93
2022/12/14 09:45:18;;;;;;;72.65;25.23;;;;;;;-1.71;85.92;98332.59;4918977;28;20047;-91
2022/12/14 09:47:58;;;;;;;76.63;26.98;;;;;;;-1.69;85.64;98327.31;4943831;28;20037;-91
2022/12/14 09:50:25;;;;;;;73.50;24.08;;;;;;;-1.69;84.85;98325.53;4971578;28;20077;-91
2022/12/14 09:53:00;;;;;;;79.78;25.92;;;;;;;-1.65;84.15;98321.81;4955450;28;20050;-93
2022/12/14 09:55:35;;;;;;;78.53;25.63;;;;;;;-1.60;84.82;98331.94;4948421;28;20034;-91
2022/12/14 09:58:21;;;;;;;84.13;27.98;;;;;;;-1.56;84.40;98326.41;4949071;28;20043;-93
2022/12/14 10:00:53;;;;;;;78.45;27.02;;;;;;;-1.55;84.27;98322.06;4950279;28;20061;-92
2022/12/14 10:03:51;;;;;;;74.70;26.83;;;;;;;-1.60;84.73;98330.16;4928791;28;20504;-92
2022/12/14 10:06:33;;;;;;;76.68;26.38;;;;;;;-1.62;84.85;98331.19;4954774;28;20092;-91
2022/12/14 10:09:32;;;;;;;73.03;24.45;;;;;;;-1.64;84.92;98327.84;4937502;28;20057;-91
2022/12/14 10:12:05;;;;;;;66.53;25.23;;;;;;;-1.67;84.82;98331.47;4928818;28;20143;-91
2022/12/14 10:14:50;;;;;;;83.32;28.83;;;;;;;-1.65;85.63;98336.59;5000322;28;20060;-90
2022/12/14 10:17:23;;;;;;;73.30;24.70;;;;;;;-1.70;85.40;98328.25;4951246;28;20050;-92
2022/12/14 10:19:50;;;;;;;71.93;25.83;;;;;;;-1.61;84.41;98327.66;4967740;28;20038;-93
2022/12/14 10:22:35;;;;;;;82.88;27.27;;;;;;;-1.60;84.77;98327.56;4971021;28;20046;-91
2022/12/14 10:25:10;;;;;;;76.28;25.02;;;;;;;-1.67;85.65;98321.06;4919374;28;20058;-92
2022/12/14 10:27:39;;;;;;;81.63;25.63;;;;;;;-1.60;84.46;98311.13;4986766;28;20477;-91
2022/12/14 10:30:27;;;;;;;85.32;27.85;;;;;;;-1.59;85.03;98311.00;4934098;28;20054;-91
2022/12/14 10:33:03;;;;;;;70.75;25.30;;;;;;;-1.64;86.45;98320.88;4968746;28;20054;-91
2022/12/14 10:35:51;;;;;;;81.97;26.83;;;;;;;-1.58;85.72;98315.28;4948893;28;20451;-93
2022/12/14 10:38:33;;;;;;;86.82;25.83;;;;;;;-1.52;85.22;98319.28;4908921;28;20510;-91
2022/12/14 10:41:14;;;;;;;90.43;27.38;;;;;;;-1.49;85.43;98318.25;4942727;28;20094;-92
2022/12/14 10:43:58;;;;;;;80.22;26.02;;;;;;;-1.55;86.39;98315.09;4928681;28;20042;-91
2022/12/14 10:46:43;;;;;;;76.43;24.90;;;;;;;-1.50;85.18;98314.81;4948995;28;20551;-91
2022/12/14 10:49:16;;;;;;;82.35;27.35;;;;;;;-1.59;86.37;98318.81;4951737;28;20085;-91
2022/12/14 10:51:58;;;;;;;73.63;24.83;;;;;;;-1.62;86.33;98310.38;4926776;28;20043;-91
2022/12/14 10:54:32;;;;;;;77.00;25.58;;;;;;;-1.54;84.70;98316.75;4923538;28;20806;-92
2022/12/14 10:56:59;;;;;;;76.47;26.95;;;;;;;-1.52;85.25;98316.66;4942949;28;20049;-91
2022/12/14 10:59:29;;;;;;;83.45;26.60;;;;;;;-1.51;85.53;98317.50;4988037;28;20131;-91
2022/12/14 11:02:15;;;;;;;80.20;27.27;;;;;;;-1.52;86.09;98318.44;4941129;28;20051;-90
2022/12/14 11:04:54;;;;;;;76.60;25.65;;;;;;;-1.52;85.60;98313.25;4938258;28;20149;-92
2022/12/14 11:07:26;;;;;;;72.97;24.88;;;;;;;-1.48;85.06;98317.28;4930099;28;20055;-91
2022/12/14 11:09:53;;;;;;;82.70;25.97;;;;;;;-1.45;84.46;98309.28;4919995;28;20059;-91
2022/12/14 11:12:25;;;;;;;74.07;25.63;;;;;;;-1.44;84.88;98305.78;4926667;28;20461;-91
2022/12/14 11:14:51;;;;;;;82.28;25.50;;;;;;;-1.44;84.83;98304.00;4934305;28;20057;-91
2022/12/14 11:17:42;;;;;;;75.93;26.10;;;;;;;-1.48;85.18;98302.50;4932205;28;20458;-91
2022/12/14 11:20:24;;;;;;;69.78;25.08;;;;;;;-1.43;84.59;98299.63;4875607;28;20071;-92
2022/12/14 11:22:55;;;;;;;83.90;27.58;;;;;;;-1.44;84.80;98296.19;4922659;28;20078;-91
2022/12/14 11:25:40;;;;;;;84.55;27.23;;;;;;;-1.46;85.34;98287.63;4937064;28;20057;-91
2022/12/14 11:28:35;;;;;;;78.15;25.38;;;;;;;-1.46;85.68;98287.63;4919889;28;20047;-91
2022/12/14 11:31:07;;;;;;;86.25;26.85;;;;;;;-1.42;85.45;98296.94;4879646;28;20403;-92
2022/12/14 11:33:43;;;;;;;72.07;26.63;;;;;;;-1.49;86.61;98300.03;4946547;28;20041;-91
2022/12/14 11:36:33;;;;;;;88.82;28.60;;;;;;;-1.46;85.52;98305.03;4985648;28;20406;-91
2022/12/14 11:39:05;;;;;;;87.63;26.92;;;;;;;-1.46;86.31;98299.81;4938193;28;20501;-93
2022/12/14 11:41:38;;;;;;;88.22;27.15;;;;;;;-1.41;85.77;98297.75;4974362;28;20053;-92
2022/12/14 11:44:26;;;;;;;82.45;27.13;;;;;;;-1.39;86.23;98301.94;4957522;28;20471;-92
2022/12/14 11:47:02;;;;;;;84.38;26.50;;;;;;;-1.32;85.78;98299.78;4946817;28;20116;-92
2022/12/14 11:49:46;;;;;;;88.97;29.40;;;;;;;-1.36;87.19;98300.91;4965974;28;20506;-91
2022/12/14 11:52:17;;;;;;;86.05;27.25;;;;;;;-1.33;85.67;98293.72;4929914;28;20518;-93
2022/12/14 11:54:46;;;;;;;83.93;27.67;;;;;;;-1.32;85.76;98292.78;4989473;28;20042;-91
2022/12/14 11:57:21;;;;;;;73.25;24.20;;;;;;;-1.37;86.38;98302.66;4989110;28;20077;-91